RYR5ZM LGSA-LOWW
Flight info
| Callsign | RYR5ZM |
|---|---|
| Flight time | 2h 19m |
| Altitude | 36000 |
| Route | SOKRI UY151 DDM DCT IXONI DCT VARDI DCT DIMIS DCT ZAG DCT NIDLO DCT NIGSI NIGSI2W |
| Aircraft | A320/M-SDE3FGHIRWY/LB1 |
Departure
| Time | 2026-04-21 11:03 |
|---|---|
| Airport | Chania International Airport (LGSA) |
Arrival
| Time | 2026-04-21 13:22 |
|---|---|
| Airport | Vienna International Airport (LOWW) |
| Time | Latitude | Longitude | Altitude | Speed | Heading |
|---|---|---|---|---|---|
| 2026-04-21 10:31 | 35.53914 | 24.13956 | 498 ft | 0 kts | 21° |
| 2026-04-21 10:52 | 35.53904 | 24.13951 | 498 ft | 4 kts | 25° |
| 2026-04-21 10:52 | 35.53881 | 24.13935 | 496 ft | 4 kts | 38° |
| 2026-04-21 10:53 | 35.53861 | 24.13912 | 487 ft | 4 kts | 54° |
| 2026-04-21 10:53 | 35.53849 | 24.13884 | 487 ft | 4 kts | 84° |
| 2026-04-21 10:53 | 35.53850 | 24.13864 | 489 ft | 1 kts | 111° |
| 2026-04-21 10:53 | 35.53851 | 24.13861 | 489 ft | 0 kts | 111° |
| 2026-04-21 10:55 | 35.53850 | 24.13864 | 489 ft | 2 kts | 111° |
| 2026-04-21 10:56 | 35.53840 | 24.13896 | 487 ft | 4 kts | 111° |
| 2026-04-21 10:56 | 35.53815 | 24.13972 | 495 ft | 14 kts | 111° |
| 2026-04-21 10:56 | 35.53744 | 24.13995 | 498 ft | 11 kts | 201° |
| 2026-04-21 10:56 | 35.53681 | 24.14000 | 493 ft | 11 kts | 127° |
| 2026-04-21 10:57 | 35.53645 | 24.14106 | 494 ft | 14 kts | 112° |
| 2026-04-21 10:57 | 35.53604 | 24.14230 | 492 ft | 20 kts | 112° |
| 2026-04-21 10:57 | 35.53549 | 24.14397 | 494 ft | 20 kts | 112° |
| 2026-04-21 10:57 | 35.53497 | 24.14551 | 495 ft | 19 kts | 110° |
| 2026-04-21 10:58 | 35.53452 | 24.14698 | 497 ft | 20 kts | 111° |
| 2026-04-21 10:58 | 35.53400 | 24.14860 | 492 ft | 20 kts | 111° |
| 2026-04-21 10:58 | 35.53352 | 24.15008 | 495 ft | 18 kts | 111° |
| 2026-04-21 10:58 | 35.53306 | 24.15152 | 496 ft | 24 kts | 111° |
| 2026-04-21 10:59 | 35.53224 | 24.15401 | 493 ft | 34 kts | 112° |
| 2026-04-21 10:59 | 35.53137 | 24.15668 | 493 ft | 34 kts | 111° |
| 2026-04-21 10:59 | 35.53049 | 24.15939 | 497 ft | 34 kts | 112° |
| 2026-04-21 10:59 | 35.52959 | 24.16210 | 490 ft | 35 kts | 112° |
| 2026-04-21 11:00 | 35.52868 | 24.16494 | 494 ft | 35 kts | 111° |
| 2026-04-21 11:00 | 35.52779 | 24.16770 | 492 ft | 33 kts | 111° |
| 2026-04-21 11:00 | 35.52716 | 24.16888 | 495 ft | 13 kts | 178° |
| 2026-04-21 11:00 | 35.52674 | 24.16871 | 496 ft | 0 kts | 202° |
| 2026-04-21 11:01 | 35.52660 | 24.16864 | 496 ft | 8 kts | 202° |
| 2026-04-21 11:02 | 35.52603 | 24.16739 | 494 ft | 12 kts | 290° |
| 2026-04-21 11:02 | 35.52670 | 24.16530 | 495 ft | 56 kts | 291° |
| 2026-04-21 11:02 | 35.52899 | 24.15828 | 490 ft | 119 kts | 291° |
| 2026-04-21 11:02 | 35.53268 | 24.14690 | 526 ft | 162 kts | 292° |
| 2026-04-21 11:03 | 35.53677 | 24.13421 | 1157 ft | 158 kts | 290° |
| 2026-04-21 11:03 | 35.54087 | 24.12162 | 1826 ft | 158 kts | 291° |
| 2026-04-21 11:03 | 35.54502 | 24.10906 | 2407 ft | 160 kts | 291° |
| 2026-04-21 11:03 | 35.54926 | 24.09639 | 3063 ft | 161 kts | 294° |
| 2026-04-21 11:04 | 35.55623 | 24.08565 | 3597 ft | 165 kts | 324° |
| 2026-04-21 11:04 | 35.56753 | 24.08077 | 3879 ft | 187 kts | 357° |
| 2026-04-21 11:04 | 35.58130 | 24.08258 | 4149 ft | 210 kts | 5° |
| 2026-04-21 11:04 | 35.59634 | 24.08502 | 4564 ft | 223 kts | 5° |
| 2026-04-21 11:05 | 35.61181 | 24.08580 | 5258 ft | 223 kts | 347° |
| 2026-04-21 11:05 | 35.62580 | 24.07824 | 5944 ft | 221 kts | 321° |
| 2026-04-21 11:05 | 35.63850 | 24.06693 | 6447 ft | 235 kts | 326° |
| 2026-04-21 11:05 | 35.65312 | 24.05573 | 6750 ft | 258 kts | 328° |
| 2026-04-21 11:06 | 35.66892 | 24.04423 | 7329 ft | 268 kts | 328° |
| 2026-04-21 11:06 | 35.68513 | 24.03258 | 8080 ft | 272 kts | 329° |
| 2026-04-21 11:06 | 35.70152 | 24.02080 | 8865 ft | 274 kts | 329° |
| 2026-04-21 11:06 | 35.71810 | 24.00885 | 9659 ft | 277 kts | 329° |
| 2026-04-21 11:07 | 35.73486 | 23.99670 | 10308 ft | 285 kts | 329° |
| 2026-04-21 11:07 | 35.75263 | 23.98375 | 10505 ft | 309 kts | 328° |
| 2026-04-21 11:07 | 35.77159 | 23.96984 | 10888 ft | 323 kts | 328° |
| 2026-04-21 11:07 | 35.79099 | 23.95558 | 11557 ft | 327 kts | 328° |
| 2026-04-21 11:08 | 35.81060 | 23.94119 | 12277 ft | 329 kts | 328° |
| 2026-04-21 11:08 | 35.83035 | 23.92672 | 13007 ft | 331 kts | 328° |
| 2026-04-21 11:08 | 35.85022 | 23.91216 | 13727 ft | 334 kts | 329° |
| 2026-04-21 11:08 | 35.87022 | 23.89749 | 14367 ft | 336 kts | 328° |
| 2026-04-21 11:09 | 35.89037 | 23.88268 | 14977 ft | 338 kts | 328° |
| 2026-04-21 11:09 | 35.91064 | 23.86776 | 15594 ft | 341 kts | 328° |
| 2026-04-21 11:09 | 35.93107 | 23.85269 | 16209 ft | 343 kts | 328° |
| 2026-04-21 11:09 | 35.95164 | 23.83751 | 16826 ft | 345 kts | 328° |
| 2026-04-21 11:10 | 35.97231 | 23.82227 | 17432 ft | 348 kts | 328° |
| 2026-04-21 11:10 | 35.99317 | 23.80691 | 18027 ft | 350 kts | 328° |
| 2026-04-21 11:10 | 36.01418 | 23.79143 | 18578 ft | 353 kts | 328° |
| 2026-04-21 11:10 | 36.03529 | 23.77584 | 19080 ft | 355 kts | 327° |
| 2026-04-21 11:11 | 36.05655 | 23.76009 | 19588 ft | 358 kts | 327° |
| 2026-04-21 11:11 | 36.07800 | 23.74423 | 20092 ft | 360 kts | 327° |
| 2026-04-21 11:11 | 36.09956 | 23.72827 | 20607 ft | 363 kts | 327° |
| 2026-04-21 11:11 | 36.12125 | 23.71222 | 21112 ft | 365 kts | 327° |
| 2026-04-21 11:12 | 36.14315 | 23.69602 | 21620 ft | 368 kts | 327° |
| 2026-04-21 11:12 | 36.16518 | 23.67971 | 22113 ft | 370 kts | 327° |
| 2026-04-21 11:12 | 36.18735 | 23.66326 | 22596 ft | 373 kts | 327° |
| 2026-04-21 11:12 | 36.20969 | 23.64665 | 23076 ft | 376 kts | 327° |
| 2026-04-21 11:13 | 36.23188 | 23.63015 | 23533 ft | 378 kts | 327° |
| 2026-04-21 11:13 | 36.25478 | 23.61315 | 23944 ft | 380 kts | 327° |
| 2026-04-21 11:13 | 36.27753 | 23.59625 | 24331 ft | 382 kts | 327° |
| 2026-04-21 11:13 | 36.30012 | 23.57942 | 24724 ft | 384 kts | 327° |
| 2026-04-21 11:14 | 36.32337 | 23.56208 | 25111 ft | 385 kts | 326° |
| 2026-04-21 11:14 | 36.34605 | 23.54516 | 25485 ft | 387 kts | 326° |
| 2026-04-21 11:14 | 36.36918 | 23.52792 | 25857 ft | 389 kts | 326° |
| 2026-04-21 11:14 | 36.39240 | 23.51064 | 26225 ft | 390 kts | 326° |
| 2026-04-21 11:15 | 36.41570 | 23.49327 | 26588 ft | 391 kts | 326° |
| 2026-04-21 11:15 | 36.43903 | 23.47582 | 26948 ft | 393 kts | 326° |
| 2026-04-21 11:15 | 36.46246 | 23.45828 | 27291 ft | 394 kts | 326° |
| 2026-04-21 11:15 | 36.48597 | 23.44066 | 27630 ft | 395 kts | 326° |
| 2026-04-21 11:16 | 36.50595 | 23.42570 | 27911 ft | 397 kts | 326° |
| 2026-04-21 11:16 | 36.52969 | 23.40792 | 28237 ft | 398 kts | 326° |
| 2026-04-21 11:16 | 36.55342 | 23.39012 | 28567 ft | 400 kts | 326° |
| 2026-04-21 11:16 | 36.57729 | 23.37217 | 28877 ft | 401 kts | 326° |
| 2026-04-21 11:17 | 36.60122 | 23.35418 | 29179 ft | 403 kts | 326° |
| 2026-04-21 11:17 | 36.62523 | 23.33614 | 29482 ft | 404 kts | 326° |
| 2026-04-21 11:17 | 36.64933 | 23.31804 | 29760 ft | 405 kts | 326° |
| 2026-04-21 11:17 | 36.67351 | 23.29984 | 30042 ft | 407 kts | 326° |
| 2026-04-21 11:18 | 36.69776 | 23.28159 | 30279 ft | 408 kts | 326° |
| 2026-04-21 11:18 | 36.72213 | 23.26324 | 30497 ft | 409 kts | 326° |
| 2026-04-21 11:18 | 36.74656 | 23.24486 | 30710 ft | 411 kts | 325° |
| 2026-04-21 11:18 | 36.77104 | 23.22642 | 30952 ft | 411 kts | 325° |
| 2026-04-21 11:19 | 36.79545 | 23.20799 | 31266 ft | 410 kts | 325° |
| 2026-04-21 11:19 | 36.81979 | 23.18959 | 31562 ft | 408 kts | 325° |
| 2026-04-21 11:19 | 36.84371 | 23.17145 | 31844 ft | 407 kts | 325° |
| 2026-04-21 11:19 | 36.86787 | 23.15310 | 32131 ft | 407 kts | 325° |
| 2026-04-21 11:20 | 36.89206 | 23.13474 | 32419 ft | 406 kts | 325° |
| 2026-04-21 11:20 | 36.91620 | 23.11644 | 32697 ft | 405 kts | 325° |
| 2026-04-21 11:20 | 36.94034 | 23.09817 | 32971 ft | 405 kts | 325° |
| 2026-04-21 11:20 | 36.96442 | 23.07994 | 33253 ft | 404 kts | 324° |
| 2026-04-21 11:21 | 36.98844 | 23.06165 | 33542 ft | 404 kts | 324° |
| 2026-04-21 11:21 | 37.01236 | 23.04341 | 33822 ft | 403 kts | 324° |
| 2026-04-21 11:21 | 37.03625 | 23.02516 | 34075 ft | 403 kts | 324° |
| 2026-04-21 11:21 | 37.05902 | 23.00779 | 34283 ft | 403 kts | 324° |
| 2026-04-21 11:22 | 37.08296 | 22.98954 | 34484 ft | 403 kts | 324° |
| 2026-04-21 11:22 | 37.10698 | 22.97125 | 34676 ft | 404 kts | 324° |
| 2026-04-21 11:22 | 37.13097 | 22.95297 | 34855 ft | 404 kts | 324° |
| 2026-04-21 11:22 | 37.15501 | 22.93464 | 35033 ft | 405 kts | 324° |
| 2026-04-21 11:23 | 37.17901 | 22.91632 | 35209 ft | 405 kts | 324° |
| 2026-04-21 11:23 | 37.20309 | 22.89789 | 35383 ft | 405 kts | 324° |
| 2026-04-21 11:23 | 37.22712 | 22.87945 | 35544 ft | 406 kts | 324° |
| 2026-04-21 11:23 | 37.25122 | 22.86096 | 35692 ft | 406 kts | 324° |
| 2026-04-21 11:24 | 37.27537 | 22.84243 | 35872 ft | 406 kts | 324° |
| 2026-04-21 11:24 | 37.29917 | 22.82413 | 35966 ft | 406 kts | 324° |
| 2026-04-21 11:24 | 37.34727 | 22.78718 | 35980 ft | 405 kts | 324° |
| 2026-04-21 11:25 | 37.39529 | 22.75034 | 35972 ft | 404 kts | 324° |
| 2026-04-21 11:25 | 37.44322 | 22.71342 | 35968 ft | 404 kts | 324° |
| 2026-04-21 11:26 | 37.49108 | 22.67643 | 35975 ft | 404 kts | 324° |
| 2026-04-21 11:26 | 37.53791 | 22.64011 | 35967 ft | 404 kts | 324° |
| 2026-04-21 11:27 | 37.58584 | 22.60303 | 35976 ft | 404 kts | 324° |
| 2026-04-21 11:27 | 37.63381 | 22.56586 | 35974 ft | 404 kts | 324° |
| 2026-04-21 11:28 | 37.68165 | 22.52863 | 35976 ft | 405 kts | 324° |
| 2026-04-21 11:28 | 37.72953 | 22.49136 | 35976 ft | 405 kts | 324° |
| 2026-04-21 11:29 | 37.77759 | 22.45404 | 35981 ft | 405 kts | 324° |
| 2026-04-21 11:29 | 37.82549 | 22.41670 | 35986 ft | 405 kts | 324° |
| 2026-04-21 11:30 | 37.87342 | 22.37913 | 35992 ft | 405 kts | 324° |
| 2026-04-21 11:30 | 37.92129 | 22.34166 | 36000 ft | 405 kts | 324° |
| 2026-04-21 11:31 | 37.96923 | 22.30409 | 36001 ft | 405 kts | 324° |
| 2026-04-21 11:31 | 38.01711 | 22.26647 | 36006 ft | 405 kts | 324° |
| 2026-04-21 11:32 | 38.06497 | 22.22888 | 35999 ft | 404 kts | 324° |
| 2026-04-21 11:32 | 38.11277 | 22.19122 | 35996 ft | 404 kts | 324° |
| 2026-04-21 11:33 | 38.16048 | 22.15357 | 35998 ft | 404 kts | 324° |
| 2026-04-21 11:33 | 38.20827 | 22.11581 | 35999 ft | 404 kts | 324° |
| 2026-04-21 11:34 | 38.25597 | 22.07813 | 36005 ft | 404 kts | 324° |
| 2026-04-21 11:34 | 38.30339 | 22.04060 | 36009 ft | 404 kts | 324° |
| 2026-04-21 11:35 | 38.35109 | 22.00278 | 36008 ft | 404 kts | 324° |
| 2026-04-21 11:35 | 38.39867 | 21.96483 | 36012 ft | 404 kts | 324° |
| 2026-04-21 11:36 | 38.44630 | 21.92688 | 36018 ft | 404 kts | 324° |
| 2026-04-21 11:36 | 38.49395 | 21.88894 | 36017 ft | 404 kts | 324° |
| 2026-04-21 11:37 | 38.54166 | 21.85088 | 36016 ft | 404 kts | 324° |
| 2026-04-21 11:37 | 38.58936 | 21.81277 | 36017 ft | 404 kts | 324° |
| 2026-04-21 11:38 | 38.63693 | 21.77466 | 36015 ft | 403 kts | 324° |
| 2026-04-21 11:38 | 38.67683 | 21.74264 | 36010 ft | 404 kts | 324° |
| 2026-04-21 11:39 | 38.72397 | 21.70469 | 36008 ft | 403 kts | 324° |
| 2026-04-21 11:39 | 38.77154 | 21.66637 | 36003 ft | 403 kts | 324° |
| 2026-04-21 11:40 | 38.81903 | 21.62814 | 36011 ft | 403 kts | 324° |
| 2026-04-21 11:40 | 38.86644 | 21.58984 | 35972 ft | 403 kts | 323° |
| 2026-04-21 11:41 | 38.91068 | 21.55416 | 36000 ft | 403 kts | 324° |
| 2026-04-21 11:41 | 38.95821 | 21.51600 | 36014 ft | 403 kts | 323° |
| 2026-04-21 11:42 | 39.00546 | 21.47755 | 36015 ft | 401 kts | 323° |
| 2026-04-21 11:42 | 39.05252 | 21.43910 | 36016 ft | 401 kts | 323° |
| 2026-04-21 11:43 | 39.09960 | 21.40067 | 36014 ft | 400 kts | 323° |
| 2026-04-21 11:43 | 39.14663 | 21.36229 | 36023 ft | 400 kts | 323° |
| 2026-04-21 11:44 | 39.19375 | 21.32384 | 36022 ft | 400 kts | 323° |
| 2026-04-21 11:44 | 39.24078 | 21.28540 | 36018 ft | 399 kts | 323° |
| 2026-04-21 11:45 | 39.28782 | 21.24690 | 36027 ft | 401 kts | 323° |
| 2026-04-21 11:45 | 39.33490 | 21.20818 | 36023 ft | 401 kts | 323° |
| 2026-04-21 11:46 | 39.38197 | 21.16951 | 36012 ft | 401 kts | 323° |
| 2026-04-21 11:46 | 39.42901 | 21.13085 | 36017 ft | 402 kts | 323° |
| 2026-04-21 11:47 | 39.47625 | 21.09198 | 36018 ft | 402 kts | 323° |
| 2026-04-21 11:47 | 39.52332 | 21.05307 | 36017 ft | 401 kts | 323° |
| 2026-04-21 11:48 | 39.57037 | 21.01408 | 36015 ft | 401 kts | 323° |
| 2026-04-21 11:48 | 39.61747 | 20.97507 | 36014 ft | 402 kts | 323° |
| 2026-04-21 11:49 | 39.66453 | 20.93608 | 36017 ft | 401 kts | 323° |
| 2026-04-21 11:49 | 39.71129 | 20.89725 | 36017 ft | 401 kts | 323° |
| 2026-04-21 11:50 | 39.75827 | 20.85807 | 36008 ft | 400 kts | 323° |
| 2026-04-21 11:50 | 39.80517 | 20.81893 | 36009 ft | 401 kts | 323° |
| 2026-04-21 11:51 | 39.85223 | 20.77971 | 36010 ft | 402 kts | 323° |
| 2026-04-21 11:51 | 39.89916 | 20.74041 | 36002 ft | 401 kts | 323° |
| 2026-04-21 11:52 | 39.94620 | 20.70092 | 36000 ft | 402 kts | 323° |
| 2026-04-21 11:52 | 39.99323 | 20.66148 | 35996 ft | 402 kts | 323° |
| 2026-04-21 11:53 | 40.04018 | 20.62207 | 35990 ft | 401 kts | 323° |
| 2026-04-21 11:53 | 40.08810 | 20.58438 | 35992 ft | 404 kts | 328° |
| 2026-04-21 11:54 | 40.13827 | 20.55122 | 35989 ft | 404 kts | 328° |
| 2026-04-21 11:54 | 40.18833 | 20.51802 | 35988 ft | 404 kts | 328° |
| 2026-04-21 11:55 | 40.23838 | 20.48466 | 35991 ft | 403 kts | 328° |
| 2026-04-21 11:55 | 40.28835 | 20.45133 | 35984 ft | 402 kts | 328° |
| 2026-04-21 11:56 | 40.33818 | 20.41805 | 35985 ft | 402 kts | 328° |
| 2026-04-21 11:56 | 40.38799 | 20.38477 | 35985 ft | 402 kts | 328° |
| 2026-04-21 11:57 | 40.43788 | 20.35145 | 35970 ft | 402 kts | 328° |
| 2026-04-21 11:57 | 40.48759 | 20.31809 | 35978 ft | 402 kts | 328° |
| 2026-04-21 11:58 | 40.53742 | 20.28461 | 35985 ft | 401 kts | 328° |
| 2026-04-21 11:58 | 40.58699 | 20.25119 | 35990 ft | 401 kts | 328° |
| 2026-04-21 11:59 | 40.63672 | 20.21770 | 35993 ft | 401 kts | 328° |
| 2026-04-21 11:59 | 40.68636 | 20.18425 | 35984 ft | 401 kts | 328° |
| 2026-04-21 12:00 | 40.73597 | 20.15063 | 35991 ft | 401 kts | 327° |
| 2026-04-21 12:00 | 40.78543 | 20.11698 | 35991 ft | 400 kts | 327° |
| 2026-04-21 12:01 | 40.83502 | 20.08337 | 35990 ft | 400 kts | 327° |
| 2026-04-21 12:01 | 40.88458 | 20.04979 | 35991 ft | 400 kts | 327° |
| 2026-04-21 12:02 | 40.95885 | 19.99919 | 35995 ft | 400 kts | 327° |
| 2026-04-21 12:03 | 41.00822 | 19.96533 | 35993 ft | 399 kts | 327° |
| 2026-04-21 12:03 | 41.05747 | 19.93162 | 35984 ft | 398 kts | 327° |
| 2026-04-21 12:04 | 41.10678 | 19.89794 | 35984 ft | 399 kts | 327° |
| 2026-04-21 12:04 | 41.15601 | 19.86419 | 35988 ft | 398 kts | 327° |
| 2026-04-21 12:05 | 41.20525 | 19.83033 | 35987 ft | 398 kts | 327° |
| 2026-04-21 12:05 | 41.25354 | 19.79705 | 35988 ft | 398 kts | 327° |
| 2026-04-21 12:06 | 41.30331 | 19.76274 | 35988 ft | 398 kts | 327° |
| 2026-04-21 12:06 | 41.35248 | 19.72875 | 35991 ft | 398 kts | 327° |
| 2026-04-21 12:07 | 41.40166 | 19.69470 | 35989 ft | 398 kts | 327° |
| 2026-04-21 12:07 | 41.44748 | 19.66301 | 35991 ft | 399 kts | 327° |
| 2026-04-21 12:08 | 41.49666 | 19.62879 | 35995 ft | 398 kts | 327° |
| 2026-04-21 12:08 | 41.54578 | 19.59457 | 35992 ft | 398 kts | 327° |
| 2026-04-21 12:09 | 41.59489 | 19.56032 | 35986 ft | 398 kts | 327° |
| 2026-04-21 12:09 | 41.64399 | 19.52607 | 35981 ft | 398 kts | 327° |
| 2026-04-21 12:10 | 41.69273 | 19.49203 | 35978 ft | 398 kts | 327° |
| 2026-04-21 12:10 | 41.74178 | 19.45764 | 35967 ft | 398 kts | 327° |
| 2026-04-21 12:11 | 41.79092 | 19.42321 | 35967 ft | 399 kts | 327° |
| 2026-04-21 12:11 | 41.84006 | 19.38872 | 35965 ft | 399 kts | 327° |
| 2026-04-21 12:12 | 41.88919 | 19.35407 | 35964 ft | 399 kts | 327° |
| 2026-04-21 12:12 | 41.93840 | 19.31935 | 35963 ft | 400 kts | 327° |
| 2026-04-21 12:13 | 41.98762 | 19.28461 | 35960 ft | 400 kts | 327° |
| 2026-04-21 12:13 | 42.03693 | 19.24974 | 35960 ft | 400 kts | 327° |
| 2026-04-21 12:14 | 42.08612 | 19.21481 | 35958 ft | 400 kts | 327° |
| 2026-04-21 12:14 | 42.13534 | 19.17985 | 35955 ft | 400 kts | 327° |
| 2026-04-21 12:15 | 42.18459 | 19.14478 | 35951 ft | 400 kts | 327° |
| 2026-04-21 12:15 | 42.23387 | 19.10968 | 35951 ft | 401 kts | 327° |
| 2026-04-21 12:16 | 42.28318 | 19.07446 | 35952 ft | 401 kts | 327° |
| 2026-04-21 12:16 | 42.33260 | 19.03912 | 35952 ft | 401 kts | 327° |
| 2026-04-21 12:17 | 42.38191 | 19.00383 | 35950 ft | 401 kts | 327° |
| 2026-04-21 12:17 | 42.43122 | 18.96843 | 35953 ft | 401 kts | 327° |
| 2026-04-21 12:18 | 42.48049 | 18.93304 | 35953 ft | 401 kts | 327° |
| 2026-04-21 12:18 | 42.52970 | 18.89758 | 35954 ft | 400 kts | 327° |
| 2026-04-21 12:19 | 42.57880 | 18.86203 | 35948 ft | 400 kts | 327° |
| 2026-04-21 12:19 | 42.62792 | 18.82647 | 35947 ft | 400 kts | 327° |
| 2026-04-21 12:20 | 42.67701 | 18.79101 | 35949 ft | 400 kts | 327° |
| 2026-04-21 12:20 | 42.72612 | 18.75540 | 35942 ft | 400 kts | 327° |
| 2026-04-21 12:21 | 42.77519 | 18.71968 | 35933 ft | 400 kts | 327° |
| 2026-04-21 12:21 | 42.82424 | 18.68393 | 35943 ft | 400 kts | 327° |
| 2026-04-21 12:22 | 42.86507 | 18.65412 | 35942 ft | 400 kts | 327° |
| 2026-04-21 12:22 | 42.92208 | 18.61249 | 35949 ft | 400 kts | 327° |
| 2026-04-21 12:23 | 42.97109 | 18.57658 | 35955 ft | 399 kts | 327° |
| 2026-04-21 12:23 | 43.01210 | 18.54648 | 35942 ft | 399 kts | 327° |
| 2026-04-21 12:24 | 43.06103 | 18.51049 | 35953 ft | 399 kts | 327° |
| 2026-04-21 12:24 | 43.10993 | 18.47449 | 35965 ft | 399 kts | 327° |
| 2026-04-21 12:25 | 43.15878 | 18.43850 | 35961 ft | 398 kts | 327° |
| 2026-04-21 12:25 | 43.20754 | 18.40258 | 35959 ft | 398 kts | 326° |
| 2026-04-21 12:26 | 43.25630 | 18.36648 | 35969 ft | 398 kts | 327° |
| 2026-04-21 12:26 | 43.30502 | 18.33029 | 35976 ft | 398 kts | 327° |
| 2026-04-21 12:27 | 43.35373 | 18.29410 | 35984 ft | 399 kts | 327° |
| 2026-04-21 12:27 | 43.40250 | 18.25780 | 35983 ft | 398 kts | 327° |
| 2026-04-21 12:28 | 43.45121 | 18.22145 | 35981 ft | 398 kts | 327° |
| 2026-04-21 12:28 | 43.49998 | 18.18502 | 35989 ft | 399 kts | 327° |
| 2026-04-21 12:29 | 43.54867 | 18.14852 | 36005 ft | 399 kts | 327° |
| 2026-04-21 12:29 | 43.59750 | 18.11188 | 36011 ft | 398 kts | 327° |
| 2026-04-21 12:30 | 43.64616 | 18.07532 | 36008 ft | 399 kts | 327° |
| 2026-04-21 12:30 | 43.69484 | 18.03870 | 36005 ft | 399 kts | 327° |
| 2026-04-21 12:31 | 43.74361 | 18.00196 | 36012 ft | 399 kts | 327° |
| 2026-04-21 12:31 | 43.79233 | 17.96518 | 36012 ft | 399 kts | 327° |
| 2026-04-21 12:32 | 43.84102 | 17.92832 | 36018 ft | 399 kts | 326° |
| 2026-04-21 12:32 | 43.88968 | 17.89141 | 36017 ft | 398 kts | 326° |
| 2026-04-21 12:33 | 43.93822 | 17.85454 | 36014 ft | 398 kts | 327° |
| 2026-04-21 12:33 | 43.98676 | 17.81765 | 36015 ft | 398 kts | 327° |
| 2026-04-21 12:34 | 44.03520 | 17.78073 | 36015 ft | 397 kts | 327° |
| 2026-04-21 12:34 | 44.08367 | 17.74367 | 36014 ft | 397 kts | 326° |
| 2026-04-21 12:35 | 44.13200 | 17.70669 | 36018 ft | 397 kts | 326° |
| 2026-04-21 12:35 | 44.17998 | 17.66979 | 36015 ft | 396 kts | 326° |
| 2026-04-21 12:36 | 44.22826 | 17.63264 | 36016 ft | 396 kts | 326° |
| 2026-04-21 12:36 | 44.27650 | 17.59557 | 36014 ft | 396 kts | 326° |
| 2026-04-21 12:37 | 44.32477 | 17.55839 | 36016 ft | 396 kts | 326° |
| 2026-04-21 12:37 | 44.37296 | 17.52116 | 36011 ft | 396 kts | 326° |
| 2026-04-21 12:38 | 44.42106 | 17.48387 | 36012 ft | 396 kts | 326° |
| 2026-04-21 12:38 | 44.46927 | 17.44652 | 36014 ft | 396 kts | 326° |
| 2026-04-21 12:39 | 44.51741 | 17.40917 | 36017 ft | 396 kts | 326° |
| 2026-04-21 12:39 | 44.56559 | 17.37164 | 36026 ft | 396 kts | 326° |
| 2026-04-21 12:40 | 44.61367 | 17.33407 | 36041 ft | 396 kts | 326° |
| 2026-04-21 12:40 | 44.66192 | 17.29637 | 36049 ft | 396 kts | 326° |
| 2026-04-21 12:41 | 44.71006 | 17.25866 | 36060 ft | 397 kts | 326° |
| 2026-04-21 12:41 | 44.75726 | 17.22160 | 36063 ft | 396 kts | 326° |
| 2026-04-21 12:42 | 44.80551 | 17.18373 | 36067 ft | 396 kts | 326° |
| 2026-04-21 12:42 | 44.85368 | 17.14583 | 36071 ft | 396 kts | 326° |
| 2026-04-21 12:43 | 44.90173 | 17.10796 | 36073 ft | 396 kts | 326° |
| 2026-04-21 12:43 | 44.94984 | 17.06991 | 36075 ft | 396 kts | 326° |
| 2026-04-21 12:44 | 44.99788 | 17.03185 | 36064 ft | 396 kts | 325° |
| 2026-04-21 12:44 | 45.04592 | 16.99372 | 36074 ft | 396 kts | 325° |
| 2026-04-21 12:45 | 45.09362 | 16.95574 | 36077 ft | 396 kts | 325° |
| 2026-04-21 12:45 | 45.14201 | 16.91723 | 36075 ft | 396 kts | 325° |
| 2026-04-21 12:46 | 45.18998 | 16.87892 | 36079 ft | 396 kts | 325° |
| 2026-04-21 12:46 | 45.23758 | 16.84071 | 36071 ft | 395 kts | 325° |
| 2026-04-21 12:47 | 45.28547 | 16.80231 | 36073 ft | 395 kts | 325° |
| 2026-04-21 12:47 | 45.33337 | 16.76386 | 36071 ft | 395 kts | 325° |
| 2026-04-21 12:48 | 45.38126 | 16.72537 | 36073 ft | 396 kts | 325° |
| 2026-04-21 12:48 | 45.42918 | 16.68673 | 36068 ft | 396 kts | 325° |
| 2026-04-21 12:49 | 45.47712 | 16.64797 | 36066 ft | 396 kts | 325° |
| 2026-04-21 12:49 | 45.52511 | 16.60916 | 36068 ft | 397 kts | 325° |
| 2026-04-21 12:50 | 45.57316 | 16.57022 | 36065 ft | 397 kts | 325° |
| 2026-04-21 12:50 | 45.62113 | 16.53115 | 36065 ft | 397 kts | 325° |
| 2026-04-21 12:51 | 45.66403 | 16.49619 | 36062 ft | 397 kts | 325° |
| 2026-04-21 12:51 | 45.71212 | 16.45704 | 36072 ft | 398 kts | 325° |
| 2026-04-21 12:52 | 45.76018 | 16.41782 | 36058 ft | 398 kts | 325° |
| 2026-04-21 12:52 | 45.80835 | 16.37835 | 36057 ft | 399 kts | 325° |
| 2026-04-21 12:53 | 45.85645 | 16.33882 | 36056 ft | 399 kts | 325° |
| 2026-04-21 12:53 | 45.90650 | 16.30369 | 36053 ft | 407 kts | 337° |
| 2026-04-21 12:54 | 45.96200 | 16.28436 | 36052 ft | 411 kts | 341° |
| 2026-04-21 12:54 | 46.01768 | 16.26549 | 36053 ft | 411 kts | 341° |
| 2026-04-21 12:55 | 46.07338 | 16.24653 | 36057 ft | 412 kts | 341° |
| 2026-04-21 12:55 | 46.12926 | 16.22757 | 36061 ft | 413 kts | 341° |
| 2026-04-21 12:56 | 46.18481 | 16.20881 | 36063 ft | 413 kts | 341° |
| 2026-04-21 12:56 | 46.24089 | 16.18977 | 36061 ft | 414 kts | 341° |
| 2026-04-21 12:57 | 46.29701 | 16.17055 | 36061 ft | 415 kts | 341° |
| 2026-04-21 12:57 | 46.35317 | 16.15131 | 36010 ft | 417 kts | 342° |
| 2026-04-21 12:57 | 46.38138 | 16.14165 | 35761 ft | 416 kts | 342° |
| 2026-04-21 12:58 | 46.40947 | 16.13205 | 35414 ft | 413 kts | 341° |
| 2026-04-21 12:58 | 46.43736 | 16.12251 | 34926 ft | 409 kts | 341° |
| 2026-04-21 12:58 | 46.46494 | 16.11305 | 34436 ft | 406 kts | 341° |
| 2026-04-21 12:58 | 46.49237 | 16.10363 | 33983 ft | 402 kts | 341° |
| 2026-04-21 12:59 | 46.51935 | 16.09438 | 33515 ft | 397 kts | 341° |
| 2026-04-21 12:59 | 46.54615 | 16.08517 | 33034 ft | 392 kts | 340° |
| 2026-04-21 12:59 | 46.57250 | 16.07610 | 32564 ft | 388 kts | 340° |
| 2026-04-21 12:59 | 46.59863 | 16.06708 | 32095 ft | 385 kts | 340° |
| 2026-04-21 13:00 | 46.62457 | 16.05810 | 31640 ft | 381 kts | 340° |
| 2026-04-21 13:00 | 46.65020 | 16.04920 | 31195 ft | 377 kts | 340° |
| 2026-04-21 13:00 | 46.67563 | 16.04036 | 30725 ft | 374 kts | 340° |
| 2026-04-21 13:00 | 46.70086 | 16.03160 | 30302 ft | 371 kts | 340° |
| 2026-04-21 13:01 | 46.72583 | 16.02294 | 29820 ft | 368 kts | 340° |
| 2026-04-21 13:01 | 46.75055 | 16.01435 | 29402 ft | 362 kts | 341° |
| 2026-04-21 13:01 | 46.77496 | 16.00585 | 28995 ft | 358 kts | 341° |
| 2026-04-21 13:01 | 46.79922 | 15.99838 | 28558 ft | 357 kts | 348° |
| 2026-04-21 13:02 | 46.82409 | 15.99686 | 28136 ft | 359 kts | 358° |
| 2026-04-21 13:02 | 46.84891 | 15.99876 | 27707 ft | 356 kts | 358° |
| 2026-04-21 13:02 | 46.89803 | 16.00233 | 26869 ft | 350 kts | 359° |
| 2026-04-21 13:03 | 46.92228 | 16.00403 | 26449 ft | 347 kts | 359° |
| 2026-04-21 13:03 | 46.94629 | 16.00572 | 26029 ft | 345 kts | 359° |
| 2026-04-21 13:03 | 46.97023 | 16.00739 | 25599 ft | 343 kts | 360° |
| 2026-04-21 13:03 | 46.99399 | 16.00904 | 25157 ft | 341 kts | 0° |
| 2026-04-21 13:04 | 47.01764 | 16.01072 | 24726 ft | 340 kts | 0° |
| 2026-04-21 13:04 | 47.04119 | 16.01244 | 24278 ft | 339 kts | 0° |
| 2026-04-21 13:04 | 47.06475 | 16.01417 | 23833 ft | 339 kts | 1° |
| 2026-04-21 13:04 | 47.08830 | 16.01587 | 23323 ft | 339 kts | 0° |
| 2026-04-21 13:05 | 47.11171 | 16.01751 | 22869 ft | 336 kts | 0° |
| 2026-04-21 13:05 | 47.13507 | 16.01914 | 22427 ft | 334 kts | 1° |
| 2026-04-21 13:05 | 47.15820 | 16.02081 | 21980 ft | 332 kts | 1° |
| 2026-04-21 13:05 | 47.18119 | 16.02247 | 21552 ft | 330 kts | 1° |
| 2026-04-21 13:06 | 47.20407 | 16.02410 | 21126 ft | 329 kts | 1° |
| 2026-04-21 13:06 | 47.21911 | 16.02518 | 20852 ft | 328 kts | 0° |
| 2026-04-21 13:06 | 47.24198 | 16.02683 | 20421 ft | 327 kts | 1° |
| 2026-04-21 13:06 | 47.26470 | 16.02848 | 19999 ft | 327 kts | 0° |
| 2026-04-21 13:07 | 47.28735 | 16.03012 | 19582 ft | 326 kts | 0° |
| 2026-04-21 13:07 | 47.30997 | 16.03176 | 19169 ft | 325 kts | 0° |
| 2026-04-21 13:07 | 47.33256 | 16.03341 | 18758 ft | 325 kts | 0° |
| 2026-04-21 13:07 | 47.35514 | 16.03506 | 18336 ft | 325 kts | 1° |
| 2026-04-21 13:08 | 47.37750 | 16.04030 | 17877 ft | 327 kts | 13° |
| 2026-04-21 13:08 | 47.39921 | 16.05079 | 17376 ft | 329 kts | 16° |
| 2026-04-21 13:08 | 47.42094 | 16.06158 | 16888 ft | 330 kts | 15° |
| 2026-04-21 13:08 | 47.44267 | 16.07233 | 16404 ft | 330 kts | 15° |
| 2026-04-21 13:09 | 47.46451 | 16.08310 | 15912 ft | 331 kts | 15° |
| 2026-04-21 13:09 | 47.48627 | 16.09387 | 15457 ft | 331 kts | 15° |
| 2026-04-21 13:09 | 47.50804 | 16.10472 | 15008 ft | 329 kts | 16° |
| 2026-04-21 13:09 | 47.52962 | 16.11548 | 14678 ft | 326 kts | 16° |
| 2026-04-21 13:10 | 47.55103 | 16.12616 | 14320 ft | 322 kts | 16° |
| 2026-04-21 13:10 | 47.57171 | 16.13651 | 14133 ft | 306 kts | 16° |
| 2026-04-21 13:10 | 47.59164 | 16.14651 | 13567 ft | 299 kts | 16° |
| 2026-04-21 13:10 | 47.61122 | 16.15626 | 12927 ft | 294 kts | 16° |
| 2026-04-21 13:11 | 47.63054 | 16.16585 | 12291 ft | 292 kts | 16° |
| 2026-04-21 13:11 | 47.64967 | 16.17538 | 11931 ft | 289 kts | 17° |
| 2026-04-21 13:11 | 47.66853 | 16.18478 | 11376 ft | 283 kts | 17° |
| 2026-04-21 13:11 | 47.68704 | 16.19405 | 10899 ft | 279 kts | 17° |
| 2026-04-21 13:12 | 47.70531 | 16.20321 | 10397 ft | 275 kts | 18° |
| 2026-04-21 13:12 | 47.72337 | 16.21226 | 9980 ft | 275 kts | 17° |
| 2026-04-21 13:12 | 47.74147 | 16.22136 | 9548 ft | 274 kts | 18° |
| 2026-04-21 13:12 | 47.75845 | 16.23386 | 9146 ft | 273 kts | 33° |
| 2026-04-21 13:13 | 47.77260 | 16.25275 | 8750 ft | 274 kts | 48° |
| 2026-04-21 13:13 | 47.78303 | 16.27649 | 8367 ft | 275 kts | 58° |
| 2026-04-21 13:13 | 47.79239 | 16.30123 | 7976 ft | 274 kts | 57° |
| 2026-04-21 13:13 | 47.80158 | 16.32541 | 7557 ft | 273 kts | 58° |
| 2026-04-21 13:14 | 47.81092 | 16.34988 | 7202 ft | 270 kts | 57° |
| 2026-04-21 13:14 | 47.82018 | 16.37415 | 6793 ft | 270 kts | 57° |
| 2026-04-21 13:14 | 47.82934 | 16.39817 | 6413 ft | 266 kts | 57° |
| 2026-04-21 13:14 | 47.83834 | 16.42185 | 5895 ft | 259 kts | 57° |
| 2026-04-21 13:15 | 47.84725 | 16.44527 | 5507 ft | 259 kts | 57° |
| 2026-04-21 13:15 | 47.85608 | 16.46850 | 5122 ft | 258 kts | 57° |
| 2026-04-21 13:15 | 47.86493 | 16.49171 | 4731 ft | 256 kts | 57° |
| 2026-04-21 13:15 | 47.87363 | 16.51462 | 4423 ft | 251 kts | 57° |
| 2026-04-21 13:16 | 47.88190 | 16.53662 | 4374 ft | 236 kts | 57° |
| 2026-04-21 13:16 | 47.88960 | 16.55737 | 4284 ft | 223 kts | 57° |
| 2026-04-21 13:16 | 47.89700 | 16.57710 | 4197 ft | 213 kts | 56° |
| 2026-04-21 13:16 | 47.90406 | 16.59590 | 4105 ft | 202 kts | 56° |
| 2026-04-21 13:17 | 47.91079 | 16.61371 | 4015 ft | 194 kts | 56° |
| 2026-04-21 13:17 | 47.91740 | 16.63109 | 3932 ft | 191 kts | 56° |
| 2026-04-21 13:17 | 47.92587 | 16.64571 | 3854 ft | 185 kts | 31° |
| 2026-04-21 13:17 | 47.93749 | 16.65211 | 3745 ft | 174 kts | 5° |
| 2026-04-21 13:18 | 47.94914 | 16.65011 | 3538 ft | 167 kts | 346° |
| 2026-04-21 13:18 | 47.96010 | 16.64548 | 3314 ft | 161 kts | 346° |
| 2026-04-21 13:18 | 47.97069 | 16.64103 | 3091 ft | 155 kts | 345° |
| 2026-04-21 13:18 | 47.98101 | 16.63671 | 2896 ft | 154 kts | 345° |
| 2026-04-21 13:19 | 47.99135 | 16.63236 | 2679 ft | 154 kts | 344° |
| 2026-04-21 13:19 | 48.00148 | 16.62810 | 2475 ft | 146 kts | 344° |
| 2026-04-21 13:19 | 48.01090 | 16.62413 | 2293 ft | 138 kts | 344° |
| 2026-04-21 13:19 | 48.02008 | 16.62024 | 2094 ft | 136 kts | 344° |
| 2026-04-21 13:20 | 48.02915 | 16.61643 | 1921 ft | 135 kts | 343° |
| 2026-04-21 13:20 | 48.03817 | 16.61259 | 1744 ft | 134 kts | 343° |
| 2026-04-21 13:20 | 48.04721 | 16.60864 | 1539 ft | 137 kts | 343° |
| 2026-04-21 13:20 | 48.05627 | 16.60486 | 1384 ft | 133 kts | 344° |
| 2026-04-21 13:21 | 48.06505 | 16.60127 | 1169 ft | 130 kts | 343° |
| 2026-04-21 13:21 | 48.07376 | 16.59769 | 1004 ft | 132 kts | 342° |
| 2026-04-21 13:21 | 48.08264 | 16.59389 | 802 ft | 134 kts | 341° |
| 2026-04-21 13:21 | 48.09143 | 16.59019 | 621 ft | 125 kts | 342° |
| 2026-04-21 13:22 | 48.09845 | 16.58717 | 618 ft | 81 kts | 345° |
| 2026-04-21 13:22 | 48.10326 | 16.58516 | 618 ft | 65 kts | 344° |
| 2026-04-21 13:22 | 48.10684 | 16.58361 | 620 ft | 34 kts | 339° |
| 2026-04-21 13:22 | 48.10882 | 16.58283 | 614 ft | 28 kts | 343° |
| 2026-04-21 13:23 | 48.11022 | 16.58120 | 613 ft | 23 kts | 302° |
| 2026-04-21 13:23 | 48.11087 | 16.57932 | 620 ft | 20 kts | 296° |
| 2026-04-21 13:23 | 48.11150 | 16.57739 | 617 ft | 21 kts | 296° |
| 2026-04-21 13:23 | 48.11216 | 16.57538 | 615 ft | 22 kts | 296° |
| 2026-04-21 13:24 | 48.11282 | 16.57334 | 614 ft | 22 kts | 296° |
| 2026-04-21 13:24 | 48.11350 | 16.57124 | 613 ft | 22 kts | 296° |
| 2026-04-21 13:24 | 48.11420 | 16.56912 | 614 ft | 23 kts | 296° |
| 2026-04-21 13:24 | 48.11489 | 16.56697 | 614 ft | 23 kts | 295° |
| 2026-04-21 13:25 | 48.11558 | 16.56485 | 612 ft | 23 kts | 296° |
| 2026-04-21 13:25 | 48.11630 | 16.56265 | 611 ft | 23 kts | 296° |
| 2026-04-21 13:25 | 48.11699 | 16.56054 | 612 ft | 20 kts | 296° |
| 2026-04-21 13:25 | 48.11742 | 16.55924 | 613 ft | 13 kts | 296° |
| 2026-04-21 13:26 | 48.11804 | 16.55842 | 622 ft | 13 kts | 4° |
| 2026-04-21 13:26 | 48.11887 | 16.55896 | 615 ft | 12 kts | 25° |
| 2026-04-21 13:26 | 48.11922 | 16.55847 | 614 ft | 8 kts | 295° |
| 2026-04-21 13:26 | 48.11936 | 16.55805 | 622 ft | 3 kts | 297° |
| 2026-04-21 13:27 | 48.11938 | 16.55800 | 621 ft | 0 kts | 297° |